world map with GFY marked

GFY - Airport

This information may not be accurate or current and is not valid for navigation or flight planning. No warranty of fitness for any purpose is made or implied.

flag of Namibia

Donate via PayPal

Additional information is available on the NEW Great Circle Mapper

Location
City:  Grootfontein, Otjozondjupa, Namibia
Name:Grootfontein AFB
ICAO / IATA:FYGF / GFY

Details
Type:Airport (Aerodrome, Airfield)
Use:Military
Latitude:19°36'08"S (-19.602166)
Longitude:18°07'22"E (18.122667)
Datum:other
Elevation:4636 ft (1413 m)
Runways:2
Longest:11680 × 148 ft (3560 × 45 m)

Time
Timezone:UTC+1 (DST+2)

Weather
METAR:FYGF  041400Z 08003KT 9999 FEW040CB SCT045 33/15 Q1017
TAF:FYGF  (expired)

Related Locations
Nearby:
Farthest:BKH: 12222 mi / 19669 km
Kekaha [Barking Sands Pacific Missile Range Facility (PMRF) Airport], Kauai, HI, US

Find:

   beyond  
but within

Other Information
Maps:
Sources:

  


 


Great Circle Mapper   Great Circle Mapper
Great Circle Mapper FAQ   Great Circle Mapper FAQ
  Karl's Home Page
KLSē   KLSē Home
   GC on Facebook
Airlines of the World   Airlines of the World
Donate via PayPal


Copyright © 2004-2019, Karl L. Swartz. All rights reserved.
All trademarks mentioned herein belong to their respective owners.

Please see credits for attribution and copyright information.

Karl Swartz <karl@kls2.com>
  Powered by FreeBSD
Valid HTML 4.01!
Labeled with ICRA
hCard Microformat
Geo Microformat